State Line, Pennsylvania
Current Conditions -  °F | °C
As of 8:53 PM on Thursday 20 Nov 2014 (Local Time) from KHGR Reporting Station
Clear Clear  
Wind Chill: 23°   Ceiling: Unl
Heat Index: 33°   Visibility: 10mi
Dew Point:   Wind: 16mph
Humidity: 37%   Direction: 280°W
Pressure: 30.05"   Gusts: NA
Location:  39.73°N, 77.72°W
Report Text: KHGR 210153Z 28014KT 10SM CLR 01/M13 A3005 RMK AO2 SLP193 T00061128
Loading
Personal Weather Stations






























Interactive Weather Map New forecast layout! Learn more

10-Day Weather Forecast

Advertisements
Track Severe Weather on mobile